Time;durP1;ratioP1;P1;durP2;ratioP2;P2;SDS_P1;SDS_P2;PMS_P1;PMS_P2;Temp;Humidity;BMP_temperature;BMP_pressure;BME280_temperature;BME280_humidity;BME280_pressure;Samples;Min_cycle;Max_cycle;Signal;HPM_P1;HPM_P2
2023/04/15 00:00:03;;;;;;;1999.90;999.90;;;10.80;99.90;;;;;;5056209;28;20070;-73
2023/04/15 00:02:29;;;;;;;1999.90;999.90;;;10.80;99.90;;;;;;5056162;28;20411;-78
2023/04/15 00:04:54;;;;;;;1999.90;999.90;;;10.80;99.90;;;;;;5056105;28;20068;-78
2023/04/15 00:07:20;;;;;;;1999.90;999.90;;;10.70;99.90;;;;;;5055907;28;20021;-72
2023/04/15 00:09:45;;;;;;;1999.90;999.90;;;10.70;99.90;;;;;;5056195;28;20028;-72
2023/04/15 00:12:12;;;;;;;1999.90;999.90;;;10.70;99.90;;;;;;5056196;28;20021;-72
2023/04/15 00:14:38;;;;;;;1999.90;999.90;;;10.60;99.90;;;;;;5054799;28;20024;-78
2023/04/15 00:17:04;;;;;;;1999.90;999.90;;;10.60;99.90;;;;;;5055442;28;20494;-78
2023/04/15 00:19:30;;;;;;;1999.90;999.90;;;10.60;99.90;;;;;;5055640;28;20056;-78
2023/04/15 00:21:56;;;;;;;1999.90;999.90;;;10.60;99.90;;;;;;5055703;28;20024;-73
2023/04/15 00:24:22;;;;;;;1999.90;999.90;;;10.60;99.90;;;;;;5056474;28;20032;-72
2023/04/15 00:26:48;;;;;;;1999.90;999.90;;;10.60;99.90;;;;;;5055518;28;20021;-78
2023/04/15 00:29:14;;;;;;;1999.90;999.90;;;10.60;99.90;;;;;;5070481;28;20411;-78
2023/04/15 00:31:41;;;;;;;1999.90;999.90;;;10.60;99.90;;;;;;5075632;28;20478;-78
2023/04/15 00:34:06;;;;;;;1999.90;999.90;;;10.60;99.90;;;;;;5054537;28;20436;-73
2023/04/15 00:36:33;;;;;;;1999.90;999.90;;;10.60;99.90;;;;;;5055686;28;20044;-72
2023/04/15 00:38:59;;;;;;;1999.90;999.90;;;10.60;99.90;;;;;;5054470;28;20021;-78
2023/04/15 00:41:25;;;;;;;1999.90;999.90;;;10.60;99.90;;;;;;5055424;28;20082;-73
2023/04/15 00:43:51;;;;;;;1999.90;999.90;;;10.60;99.90;;;;;;5055333;28;20102;-78
2023/04/15 00:46:20;;;;;;;1999.90;999.90;;;10.50;99.90;;;;;;5055432;28;20119;-78
2023/04/15 00:48:46;;;;;;;1999.90;999.90;;;10.50;99.90;;;;;;5055428;28;20045;-72
2023/04/15 00:51:13;;;;;;;1999.90;999.90;;;10.40;99.90;;;;;;5055052;28;20021;-78
2023/04/15 00:53:39;;;;;;;1999.90;999.90;;;10.40;99.90;;;;;;5053748;28;20427;-77
2023/04/15 00:56:05;;;;;;;1999.90;999.90;;;10.40;99.90;;;;;;5055298;28;20032;-77
2023/04/15 00:58:31;;;;;;;1999.90;999.90;;;10.50;99.90;;;;;;5055481;28;20456;-78
2023/04/15 01:00:57;;;;;;;1999.90;999.90;;;10.50;99.90;;;;;;5052117;28;20067;-73
2023/04/15 01:03:24;;;;;;;1999.90;999.90;;;10.50;99.90;;;;;;5051889;28;20099;-72
2023/04/15 01:05:56;;;;;;;1999.90;999.90;;;10.50;99.90;;;;;;5054889;28;20024;-77
2023/04/15 01:08:31;;;;;;;1999.90;999.90;;;10.50;99.90;;;;;;5054815;28;20029;-72
2023/04/15 01:11:00;;;;;;;1999.90;999.90;;;10.50;99.90;;;;;;5055245;28;20040;-72
2023/04/15 01:13:26;;;;;;;1999.90;999.90;;;10.40;99.90;;;;;;5054789;28;20021;-72
2023/04/15 01:15:52;;;;;;;1999.90;999.90;;;10.30;99.90;;;;;;5054779;28;20025;-72
2023/04/15 01:18:19;;;;;;;1999.90;999.90;;;10.30;99.90;;;;;;5053614;28;20071;-77
2023/04/15 01:20:44;;;;;;;1999.90;999.90;;;10.30;99.90;;;;;;5055023;28;20025;-78
2023/04/15 01:23:10;;;;;;;1999.90;999.90;;;10.30;99.90;;;;;;5054689;28;20546;-72
2023/04/15 01:25:37;;;;;;;1999.90;999.90;;;10.30;99.90;;;;;;5054493;28;20068;-72
2023/04/15 01:28:03;;;;;;;1999.90;999.90;;;10.20;99.90;;;;;;5058153;28;20464;-72
2023/04/15 01:30:33;;;;;;;1999.90;999.90;;;10.20;99.90;;;;;;5074600;28;20476;-72
2023/04/15 01:32:59;;;;;;;1999.90;999.90;;;10.20;99.90;;;;;;5074391;28;20384;-72
2023/04/15 01:35:25;;;;;;;1999.90;999.90;;;10.20;99.90;;;;;;5074788;28;20051;-72
2023/04/15 01:37:53;;;;;;;1999.90;999.90;;;10.10;99.90;;;;;;5074203;28;20070;-78
2023/04/15 01:40:19;;;;;;;1999.90;999.90;;;10.10;99.90;;;;;;5074086;28;20029;-77
2023/04/15 01:42:45;;;;;;;1999.90;999.90;;;10.10;99.90;;;;;;5070502;28;20041;-72
2023/04/15 01:45:12;;;;;;;1999.90;999.90;;;10.00;99.90;;;;;;5054321;28;20027;-78
2023/04/15 01:47:38;;;;;;;1999.90;999.90;;;10.00;99.90;;;;;;5054654;28;20029;-72
2023/04/15 01:50:04;;;;;;;1999.90;999.90;;;10.00;99.90;;;;;;5053934;28;20124;-77
2023/04/15 01:52:29;;;;;;;1999.90;999.90;;;10.00;99.90;;;;;;5053914;28;20032;-72
2023/04/15 01:54:56;;;;;;;1999.90;999.90;;;10.00;99.90;;;;;;5054027;28;20029;-72
2023/04/15 01:57:21;;;;;;;1999.90;999.90;;;10.00;99.90;;;;;;5053959;28;20017;-72
2023/04/15 01:59:47;;;;;;;1999.90;999.90;;;10.10;99.90;;;;;;5054320;28;20431;-72
2023/04/15 02:02:12;;;;;;;1999.90;999.90;;;10.10;99.90;;;;;;5054025;28;20108;-72
2023/04/15 02:04:38;;;;;;;1999.90;999.90;;;10.10;99.90;;;;;;5053496;28;20029;-77
2023/04/15 02:07:03;;;;;;;1999.90;999.90;;;10.00;99.90;;;;;;5053566;28;20065;-72
2023/04/15 02:09:29;;;;;;;1999.90;999.90;;;10.10;99.90;;;;;;5053731;28;20025;-72
2023/04/15 02:11:55;;;;;;;1999.90;999.90;;;10.00;99.90;;;;;;5053949;28;20035;-72
2023/04/15 02:14:21;;;;;;;1999.90;999.90;;;10.00;99.90;;;;;;5053854;28;20021;-72
2023/04/15 02:16:46;;;;;;;1999.90;999.90;;;10.00;99.90;;;;;;5053527;28;20474;-72
2023/04/15 02:19:12;;;;;;;1999.90;999.90;;;10.00;99.90;;;;;;5052847;28;20021;-72
2023/04/15 02:21:38;;;;;;;1999.90;999.90;;;9.90;99.90;;;;;;5053848;28;20372;-78
2023/04/15 02:24:04;;;;;;;1999.90;999.90;;;9.90;99.90;;;;;;5053575;28;20029;-72
2023/04/15 02:26:31;;;;;;;1999.90;999.90;;;9.90;99.90;;;;;;5053674;28;20025;-73
2023/04/15 02:28:57;;;;;;;1999.90;999.90;;;9.90;99.90;;;;;;5065835;28;20107;-73
2023/04/15 02:31:23;;;;;;;1999.90;999.90;;;9.90;99.90;;;;;;5073158;28;20106;-72
2023/04/15 02:33:49;;;;;;;1999.90;999.90;;;9.90;99.90;;;;;;5072019;28;20025;-72
2023/04/15 02:36:15;;;;;;;1999.90;999.90;;;9.90;99.90;;;;;;5073561;28;20502;-72
2023/04/15 02:38:42;;;;;;;1999.90;999.90;;;9.90;99.90;;;;;;5073199;28;20048;-72
2023/04/15 02:41:09;;;;;;;1999.90;999.90;;;9.80;99.90;;;;;;5073128;28;20052;-72
2023/04/15 02:43:35;;;;;;;1999.90;999.90;;;9.90;99.90;;;;;;5062393;28;20025;-72
2023/04/15 02:46:00;;;;;;;1999.90;999.90;;;9.90;99.90;;;;;;5053321;28;20377;-77
2023/04/15 02:48:26;;;;;;;1999.90;999.90;;;9.80;99.90;;;;;;5053373;28;20025;-72
2023/04/15 02:50:51;;;;;;;1999.90;999.90;;;9.90;99.90;;;;;;5053174;28;20068;-77
2023/04/15 02:53:18;;;;;;;1999.90;999.90;;;9.80;99.90;;;;;;5053108;28;20118;-72
2023/04/15 02:55:45;;;;;;;1999.90;999.90;;;9.80;99.90;;;;;;5053032;28;20487;-72
2023/04/15 02:58:10;;;;;;;1999.90;999.90;;;9.70;99.90;;;;;;5052785;28;20468;-72
2023/04/15 03:00:36;;;;;;;1999.90;999.90;;;9.70;99.90;;;;;;5053196;28;20036;-77
2023/04/15 03:03:04;;;;;;;1999.90;999.90;;;9.80;99.90;;;;;;5052974;28;20408;-77
2023/04/15 03:05:30;;;;;;;1999.90;999.90;;;9.80;99.90;;;;;;5053207;28;20459;-72
2023/04/15 03:07:56;;;;;;;1999.90;999.90;;;9.80;99.90;;;;;;5052712;28;20139;-78
2023/04/15 03:10:21;;;;;;;1999.90;999.90;;;9.70;99.90;;;;;;5052654;28;20096;-77
2023/04/15 03:12:47;;;;;;;1999.90;999.90;;;9.70;99.90;;;;;;5053021;28;20033;-77
2023/04/15 03:15:13;;;;;;;1999.90;999.90;;;9.60;99.90;;;;;;5051986;28;20440;-72
2023/04/15 03:17:39;;;;;;;1999.90;999.90;;;9.60;99.90;;;;;;5052693;28;20021;-77
2023/04/15 03:20:05;;;;;;;1999.90;999.90;;;9.50;99.90;;;;;;5051913;28;20013;-77
2023/04/15 03:22:31;;;;;;;1999.90;999.90;;;9.50;99.90;;;;;;5052546;28;20491;-72
2023/04/15 03:24:57;;;;;;;1999.90;999.90;;;9.40;99.90;;;;;;5052585;28;20029;-72
2023/04/15 03:27:23;;;;;;;1999.90;999.90;;;9.40;99.90;;;;;;5052549;28;20036;-77
2023/04/15 03:29:49;;;;;;;1999.90;999.90;;;9.30;99.90;;;;;;5072300;28;20076;-72
2023/04/15 03:32:15;;;;;;;1999.90;999.90;;;9.30;99.90;;;;;;5072614;28;20028;-72
2023/04/15 03:34:41;;;;;;;1999.90;999.90;;;9.20;99.90;;;;;;5071244;28;20027;-72
2023/04/15 03:37:07;;;;;;;1999.90;999.90;;;9.20;99.90;;;;;;5072865;28;20029;-77
2023/04/15 03:39:33;;;;;;;1999.90;999.90;;;9.20;99.90;;;;;;5072466;28;20070;-72
2023/04/15 03:41:59;;;;;;;1999.90;999.90;;;9.10;99.90;;;;;;5072593;28;20028;-72
2023/04/15 03:44:27;;;;;;;1999.90;999.90;;;9.00;99.90;;;;;;5054690;28;20024;-72
2023/04/15 03:46:53;;;;;;;1999.90;999.90;;;9.00;99.90;;;;;;5051189;28;20047;-73
2023/04/15 03:49:21;;;;;;;1999.90;999.90;;;9.00;99.90;;;;;;5052229;28;20119;-72
2023/04/15 03:51:47;;;;;;;1999.90;999.90;;;9.00;99.90;;;;;;5052327;28;20045;-72
2023/04/15 03:54:14;;;;;;;1999.90;999.90;;;8.90;99.90;;;;;;5052152;28;20502;-77
2023/04/15 03:56:39;;;;;;;1999.90;999.90;;;8.90;99.90;;;;;;5052478;28;20024;-72
2023/04/15 03:59:05;;;;;;;1999.90;999.90;;;8.90;99.90;;;;;;5052366;28;20025;-72
2023/04/15 04:01:31;;;;;;;1999.90;999.90;;;8.80;99.90;;;;;;5051822;28;20053;-72
2023/04/15 04:03:56;;;;;;;1999.90;999.90;;;8.80;99.90;;;;;;5052169;28;20025;-77
2023/04/15 04:06:22;;;;;;;1999.90;999.90;;;8.80;99.90;;;;;;5052252;28;20036;-72
2023/04/15 04:08:47;;;;;;;1999.90;999.90;;;8.70;99.90;;;;;;5052019;28;20118;-77
2023/04/15 04:11:13;;;;;;;1999.90;999.90;;;8.60;99.90;;;;;;5052235;28;20026;-72
2023/04/15 04:13:39;;;;;;;1999.90;999.90;;;8.60;99.90;;;;;;5052294;28;20104;-72
2023/04/15 04:16:05;;;;;;;1999.90;999.90;;;8.50;99.90;;;;;;5051971;28;20021;-72
2023/04/15 04:18:32;;;;;;;1999.90;999.90;;;8.50;99.90;;;;;;5051424;28;20103;-72
2023/04/15 04:20:57;;;;;;;1999.90;999.90;;;8.50;99.90;;;;;;5051369;28;20480;-72
2023/04/15 04:23:23;;;;;;;1999.90;999.90;;;8.50;99.90;;;;;;5052182;28;20108;-72
2023/04/15 04:25:49;;;;;;;1999.90;999.90;;;8.40;99.90;;;;;;5052367;28;20053;-72
2023/04/15 04:28:14;;;;;;;1999.90;999.90;;;8.40;99.90;;;;;;5055234;28;20099;-72
2023/04/15 04:30:40;;;;;;;1999.90;999.90;;;8.50;99.90;;;;;;5055707;28;20028;-72
2023/04/15 04:33:06;;;;;;;1999.90;999.90;;;8.50;99.90;;;;;;5055555;28;20033;-73
2023/04/15 04:35:33;;;;;;;1999.90;999.90;;;8.40;99.90;;;;;;5055519;28;20472;-72
2023/04/15 04:38:00;;;;;;;1999.90;999.90;;;8.40;99.90;;;;;;5055710;28;20071;-72
2023/04/15 04:40:26;;;;;;;1999.90;999.90;;;8.40;99.90;;;;;;5055364;28;20017;-72
2023/04/15 04:42:52;;;;;;;1999.90;999.90;;;8.40;99.90;;;;;;5055341;28;20028;-72
2023/04/15 04:45:18;;;;;;;1999.90;999.90;;;8.40;99.90;;;;;;5055351;28;20025;-72
2023/04/15 04:47:43;;;;;;;1999.90;999.90;;;8.40;99.90;;;;;;5055753;28;20025;-71
2023/04/15 04:50:10;;;;;;;1999.90;999.90;;;8.40;99.90;;;;;;5055107;28;20534;-73
2023/04/15 04:52:36;;;;;;;1999.90;999.90;;;8.40;99.90;;;;;;5055217;28;20041;-77
2023/04/15 04:55:01;;;;;;;1999.90;999.90;;;8.40;99.90;;;;;;5055093;28;20540;-71
2023/04/15 04:57:27;;;;;;;1999.90;999.90;;;8.40;99.90;;;;;;5055405;28;20108;-72
2023/04/15 04:59:53;;;;;;;1999.90;999.90;;;8.40;99.90;;;;;;5055166;28;20040;-72
2023/04/15 05:02:18;;;;;;;1999.90;999.90;;;8.30;99.90;;;;;;5055289;28;20512;-72
2023/04/15 05:04:44;;;;;;;1999.90;999.90;;;8.30;99.90;;;;;;5055007;28;20472;-72
2023/04/15 05:07:10;;;;;;;1999.90;999.90;;;8.30;99.90;;;;;;5055102;28;20021;-71
2023/04/15 05:09:36;;;;;;;1999.90;999.90;;;8.30;99.90;;;;;;5054968;28;20029;-72
2023/04/15 05:12:05;;;;;;;1999.90;999.90;;;8.20;99.90;;;;;;5053460;28;20503;-72
2023/04/15 05:14:31;;;;;;;1999.90;999.90;;;8.30;99.90;;;;;;5054962;28;20021;-72
2023/04/15 05:16:56;;;;;;;1999.90;999.90;;;8.30;99.90;;;;;;5053569;28;20021;-72
2023/04/15 05:19:22;;;;;;;1999.90;999.90;;;8.30;99.90;;;;;;5054248;28;20127;-72
2023/04/15 05:21:47;;;;;;;1999.90;999.90;;;8.30;99.90;;;;;;5054851;28;20033;-72
2023/04/15 05:24:13;;;;;;;1999.90;999.90;;;8.30;99.90;;;;;;5054466;28;20029;-72
2023/04/15 05:26:39;;;;;;;1999.90;999.90;;;8.30;99.90;;;;;;5054787;28;20108;-72
2023/04/15 05:29:05;;;;;;;1999.90;999.90;;;8.40;99.90;;;;;;5068210;28;20021;-72
2023/04/15 05:31:30;;;;;;;1999.90;999.90;;;8.40;99.90;;;;;;5074511;28;20032;-72
2023/04/15 05:33:56;;;;;;;1999.90;999.90;;;8.40;99.90;;;;;;5073144;28;20024;-77
2023/04/15 05:36:22;;;;;;;1999.90;999.90;;;8.40;99.90;;;;;;5074473;28;20035;-72
2023/04/15 05:38:48;;;;;;;1999.90;999.90;;;8.40;99.90;;;;;;5062626;28;20037;-72
2023/04/15 05:41:14;;;;;;;1999.90;999.90;;;8.40;99.90;;;;;;5054663;28;20036;-77
2023/04/15 05:43:40;;;;;;;1999.90;999.90;;;8.40;99.90;;;;;;5054291;28;20067;-72
2023/04/15 05:46:07;;;;;;;1999.90;999.90;;;8.50;99.90;;;;;;5054133;28;20032;-72
2023/04/15 05:48:33;;;;;;;1999.90;999.90;;;8.50;99.90;;;;;;5054026;28;20495;-72
2023/04/15 05:50:59;;;;;;;1999.90;999.90;;;8.50;99.90;;;;;;5054300;28;20025;-72
2023/04/15 05:53:25;;;;;;;1999.90;999.90;;;8.60;99.90;;;;;;5053995;28;20612;-72
2023/04/15 05:55:50;;;;;;;1999.90;999.90;;;8.60;99.90;;;;;;5054190;28;20104;-72
2023/04/15 05:58:16;;;;;;;1999.90;999.90;;;8.70;99.90;;;;;;5054310;28;20110;-72
2023/04/15 06:00:42;;;;;;;1999.90;999.90;;;8.70;99.90;;;;;;5053833;28;20031;-72
2023/04/15 06:03:08;;;;;;;1999.90;999.90;;;8.70;99.90;;;;;;5054138;28;20028;-77
2023/04/15 06:05:34;;;;;;;1999.90;999.90;;;8.80;99.90;;;;;;5054111;28;20028;-72
2023/04/15 06:08:00;;;;;;;1999.90;999.90;;;8.90;99.90;;;;;;5053853;28;20056;-72
2023/04/15 06:10:25;;;;;;;1999.90;999.90;;;8.90;99.90;;;;;;5053713;28;20029;-72
2023/04/15 06:12:52;;;;;;;1999.90;999.90;;;9.00;99.90;;;;;;5053950;28;20025;-77
2023/04/15 06:15:18;;;;;;;1999.90;999.90;;;9.00;99.90;;;;;;5052427;28;20025;-72
2023/04/15 06:17:44;;;;;;;1999.90;999.90;;;9.10;99.90;;;;;;5052796;28;20055;-72
2023/04/15 06:20:10;;;;;;;1999.90;999.90;;;9.10;99.90;;;;;;5053012;28;20024;-72
2023/04/15 06:22:37;;;;;;;1999.90;999.90;;;9.20;99.90;;;;;;5053992;28;20033;-72
2023/04/15 06:25:03;;;;;;;1999.90;999.90;;;9.20;99.90;;;;;;5053400;28;20108;-72
2023/04/15 06:27:29;;;;;;;1999.90;999.90;;;9.20;99.90;;;;;;5053715;28;20033;-72
2023/04/15 06:29:55;;;;;;;1999.90;999.90;;;9.30;99.90;;;;;;5072180;28;20035;-77
2023/04/15 06:32:20;;;;;;;1999.90;999.90;;;9.40;99.90;;;;;;5073330;28;20483;-72
2023/04/15 06:34:46;;;;;;;1999.90;999.90;;;9.40;99.90;;;;;;5073674;28;20021;-72
2023/04/15 06:37:15;;;;;;;1999.90;999.90;;;9.40;99.90;;;;;;5073520;28;20078;-72
2023/04/15 06:39:41;;;;;;;1999.90;999.90;;;9.50;99.90;;;;;;5073066;28;20043;-72
2023/04/15 06:42:08;;;;;;;1999.90;999.90;;;9.60;99.90;;;;;;5073175;28;20028;-73
2023/04/15 06:44:33;;;;;;;1999.90;999.90;;;9.60;99.90;;;;;;5054441;28;20021;-72
2023/04/15 06:46:59;;;;;;;1999.90;999.90;;;9.60;99.90;;;;;;5053354;28;20036;-72
2023/04/15 06:49:25;;;;;;;1999.90;999.90;;;9.70;99.90;;;;;;5053027;28;20057;-72
2023/04/15 06:51:51;;;;;;;1999.90;999.90;;;9.80;99.90;;;;;;5052895;28;20029;-72
2023/04/15 06:54:17;;;;;;;1999.90;999.90;;;9.90;99.90;;;;;;5052963;28;20047;-72
2023/04/15 06:56:43;;;;;;;1999.90;999.90;;;9.90;99.90;;;;;;5053116;28;20476;-72
2023/04/15 06:59:08;;;;;;;1999.90;999.90;;;10.00;99.90;;;;;;5053145;28;20516;-72
2023/04/15 07:01:34;;;;;;;1999.90;999.90;;;10.10;99.90;;;;;;5053011;28;20025;-72
2023/04/15 07:04:00;;;;;;;1999.90;999.90;;;10.10;99.90;;;;;;5051602;28;20023;-72
2023/04/15 07:06:26;;;;;;;1999.90;999.90;;;10.20;99.90;;;;;;5051520;28;20486;-73
2023/04/15 07:08:52;;;;;;;1999.90;999.90;;;10.30;99.90;;;;;;5052848;28;20021;-72
2023/04/15 07:11:18;;;;;;;1999.90;999.90;;;10.40;99.90;;;;;;5052642;28;20102;-72
2023/04/15 07:13:44;;;;;;;1999.90;999.90;;;10.40;99.90;;;;;;5053018;28;20112;-72
2023/04/15 07:16:09;;;;;;;1999.90;999.90;;;10.50;99.90;;;;;;5052543;28;20029;-72
2023/04/15 07:18:35;;;;;;;1999.90;999.90;;;10.50;99.90;;;;;;5047484;28;20013;-77
2023/04/15 07:21:01;;;;;;;1999.90;999.90;;;10.60;99.90;;;;;;5052097;28;20025;-72
2023/04/15 07:23:27;;;;;;;1999.90;999.90;;;10.70;99.90;;;;;;5052860;28;20488;-72
2023/04/15 07:25:52;;;;;;;1999.90;999.90;;;10.70;99.90;;;;;;5051274;28;20032;-72
2023/04/15 07:28:18;;;;;;;1999.90;999.90;;;10.90;99.90;;;;;;5059722;28;20032;-72
2023/04/15 07:30:43;;;;;;;1999.90;999.90;;;10.90;99.90;;;;;;5072560;28;20024;-72
2023/04/15 07:33:09;;;;;;;1999.90;999.90;;;11.00;99.90;;;;;;5072513;28;20025;-77
2023/04/15 07:35:35;;;;;;;1999.90;999.90;;;11.10;99.90;;;;;;5072761;28;20029;-72
2023/04/15 07:38:01;;;;;;;1999.90;999.90;;;11.20;99.90;;;;;;5071266;28;20024;-72
2023/04/15 07:40:27;;;;;;;1999.90;999.90;;;11.20;99.90;;;;;;5072485;28;20226;-72
2023/04/15 07:42:53;;;;;;;1999.90;999.90;;;11.30;99.90;;;;;;5067785;28;20029;-78
2023/04/15 07:45:18;;;;;;;1999.90;999.90;;;11.40;99.90;;;;;;5052686;28;20056;-72
2023/04/15 07:47:44;;;;;;;1999.90;999.90;;;11.40;99.90;;;;;;5052856;28;20471;-72
2023/04/15 07:50:10;;;;;;;1999.90;999.90;;;11.60;99.90;;;;;;5052253;28;20041;-72
2023/04/15 07:52:38;;;;;;;1999.90;999.90;;;11.70;99.90;;;;;;5052253;28;20036;-73
2023/04/15 07:55:07;;;;;;;1999.90;999.90;;;11.70;99.90;;;;;;5052364;28;20017;-72
2023/04/15 07:57:33;;;;;;;1999.90;999.90;;;11.90;99.90;;;;;;5052275;28;20027;-72
2023/04/15 08:00:00;;;;;;;1999.90;999.90;;;12.10;99.90;;;;;;5052207;28;20017;-73
2023/04/15 08:02:25;;;;;;;1999.90;999.90;;;12.40;99.90;;;;;;5054634;28;20025;-72
2023/04/15 08:04:52;;;;;;;1999.90;999.90;;;14.00;99.90;;;;;;5056153;28;20503;-78
2023/04/15 08:07:17;;;;;;;1999.90;999.90;;;16.80;99.90;;;;;;5056065;28;20036;-78
2023/04/15 08:09:43;;;;;;;1999.90;999.90;;;18.80;99.90;;;;;;5056060;28;20029;-78
2023/04/15 08:12:12;;;;;;;1999.90;999.90;;;18.90;99.90;;;;;;5056102;28;20119;-73
2023/04/15 08:14:38;;;;;;;1999.90;999.90;;;19.80;99.90;;;;;;5055996;28;20522;-73
2023/04/15 08:17:04;;;;;;;1999.90;999.90;;;20.20;99.90;;;;;;5056138;28;20028;-73
2023/04/15 08:19:30;;;;;;;1999.90;999.90;;;20.60;99.90;;;;;;5054967;28;20392;-72
2023/04/15 08:21:56;;;;;;;1999.90;999.90;;;20.40;99.90;;;;;;5055272;28;20025;-73
2023/04/15 08:24:23;;;;;;;1999.90;999.90;;;20.60;99.90;;;;;;5055892;28;20028;-73
2023/04/15 08:26:48;;;;;;;1999.90;999.90;;;20.90;99.90;;;;;;5055646;28;20026;-73
2023/04/15 08:29:14;;;;;;;1999.90;999.90;;;20.10;99.90;;;;;;5070566;28;20024;-73
2023/04/15 08:31:39;;;;;;;1999.90;999.90;;;20.60;99.90;;;;;;5074257;28;20368;-73
2023/04/15 08:34:05;;;;;;;1999.90;999.90;;;20.40;99.90;;;;;;5075435;28;20063;-73
2023/04/15 08:36:31;;;;;;;1999.90;999.90;;;20.70;99.90;;;;;;5075847;28;20021;-79
2023/04/15 08:38:57;;;;;;;1999.90;999.90;;;21.20;99.90;;;;;;5075383;28;20487;-79
2023/04/15 08:41:24;;;;;;;1999.90;999.90;;;21.60;99.90;;;;;;5075438;28;20098;-73
2023/04/15 08:43:57;;;;;;;1999.90;999.90;;;21.90;99.80;;;;;;5062732;28;20031;-79
2023/04/15 08:46:22;;;;;;;1999.90;999.90;;;21.50;99.90;;;;;;5055456;28;20518;-73
2023/04/15 08:48:49;;;;;;;1999.90;999.90;;;21.40;99.90;;;;;;5053872;28;20049;-73
2023/04/15 08:51:17;;;;;;;1999.90;999.90;;;21.70;99.90;;;;;;5055531;28;20033;-74
2023/04/15 08:53:43;;;;;;;1999.90;999.90;;;22.70;99.10;;;;;;5054973;28;20033;-73
2023/04/15 08:56:11;;;;;;;1999.90;999.90;;;22.30;98.80;;;;;;5055012;28;20120;-73
2023/04/15 08:58:37;;;;;;;1999.90;999.90;;;22.50;98.10;;;;;;5055264;28;20040;-73
2023/04/15 09:01:03;;;;;;;1999.90;999.90;;;22.30;99.30;;;;;;5055133;28;20087;-73
2023/04/15 09:03:29;;;;;;;1999.90;999.90;;;22.00;99.20;;;;;;5055018;28;20504;-73
2023/04/15 09:05:56;;;;;;;1999.90;999.90;;;22.20;98.70;;;;;;5055269;28;20033;-79
2023/04/15 09:08:21;;;;;;;1999.90;999.90;;;22.10;98.00;;;;;;5054776;28;20519;-73
2023/04/15 09:10:47;;;;;;;1999.90;999.90;;;22.80;98.40;;;;;;5055017;28;20109;-73
2023/04/15 09:13:13;;;;;;;1999.90;999.90;;;22.20;97.50;;;;;;5053671;28;20460;-73
2023/04/15 09:15:39;;;;;;;1999.90;999.90;;;21.30;98.60;;;;;;5054722;28;20545;-73
2023/04/15 09:18:05;;;;;;;1999.90;999.90;;;22.40;98.80;;;;;;5054705;28;20020;-73
2023/04/15 09:20:41;;;;;;;1999.90;999.90;;;23.10;98.30;;;;;;5054568;28;20392;-79
2023/04/15 09:23:14;;;;;;;1999.90;999.90;;;23.80;97.10;;;;;;5054237;28;20104;-73
2023/04/15 09:25:43;;;;;;;1999.90;999.90;;;23.40;96.80;;;;;;5054126;28;20053;-73
2023/04/15 09:28:10;;;;;;;1999.90;999.90;;;22.20;98.20;;;;;;5060028;28;20025;-73
2023/04/15 09:30:36;;;;;;;1999.90;999.90;;;22.90;98.80;;;;;;5074587;28;20025;-73
2023/04/15 09:33:07;;;;;;;1999.90;999.90;;;23.50;98.00;;;;;;5074447;28;20032;-79
2023/04/15 09:35:35;;;;;;;1999.90;999.90;;;22.50;96.90;;;;;;5074699;28;20024;-79
2023/04/15 09:38:06;;;;;;;1999.90;999.90;;;21.90;97.10;;;;;;5074391;28;20024;-78
2023/04/15 09:40:41;;;;;;;1999.90;999.90;;;21.90;97.30;;;;;;5074346;28;20486;-79
2023/04/15 09:43:09;;;;;;;1999.90;999.90;;;23.10;97.20;;;;;;5068060;28;20021;-73
2023/04/15 09:45:35;;;;;;;1999.90;999.90;;;23.10;96.40;;;;;;5054163;28;20423;-79
2023/04/15 09:48:20;;;;;;;1999.90;999.90;;;23.00;96.40;;;;;;5054674;28;20365;-73
2023/04/15 09:50:52;;;;;;;1999.90;999.90;;;23.30;98.10;;;;;;5054100;28;20511;-79
2023/04/15 09:53:20;;;;;;;1999.90;999.90;;;22.90;96.80;;;;;;5054182;28;20120;-79
2023/04/15 09:55:51;;;;;;;1999.90;999.90;;;22.70;97.90;;;;;;5054150;28;20028;-73
2023/04/15 09:58:30;;;;;;;1999.90;999.90;;;21.70;99.00;;;;;;5054035;28;20108;-73
2023/04/15 10:00:57;;;;;;;1999.90;999.90;;;22.80;98.20;;;;;;5054103;28;20028;-79
2023/04/15 10:03:25;;;;;;;1999.90;999.90;;;23.10;97.40;;;;;;5053933;28;20112;-79
2023/04/15 10:05:52;;;;;;;1999.90;999.90;;;21.70;98.40;;;;;;5054341;28;20025;-74
2023/04/15 10:08:20;;;;;;;1999.90;999.90;;;22.10;99.60;;;;;;5053646;28;20044;-73
2023/04/15 10:10:47;;;;;;;1999.90;999.90;;;23.10;96.70;;;;;;5053768;28;20057;-74
2023/04/15 10:13:35;;;;;;;1999.90;999.90;;;23.10;96.30;;;;;;5053960;28;20091;-80
2023/04/15 10:16:20;;;;;;;1999.90;999.90;;;23.20;96.00;;;;;;5053587;28;20021;-79
2023/04/15 10:18:49;;;;;;;1999.90;999.90;;;22.40;94.90;;;;;;5052901;28;20013;-79
2023/04/15 10:21:17;;;;;;;1999.90;999.90;;;21.80;96.80;;;;;;5053104;28;20021;-73
2023/04/15 10:23:44;;;;;;;1999.90;999.90;;;20.10;99.90;;;;;;5053932;28;20025;-73
2023/04/15 10:26:13;;;;;;;1999.90;999.90;;;19.60;99.90;;;;;;5053296;28;20060;-73
2023/04/15 10:28:39;;;;;;;1999.90;999.90;;;18.60;99.90;;;;;;5062252;28;20490;-79
2023/04/15 10:31:06;;;;;;;1999.90;999.90;;;19.90;99.90;;;;;;5073213;28;20476;-73
2023/04/15 10:33:32;;;;;;;1999.90;999.90;;;20.10;99.90;;;;;;5073373;28;20424;-73
2023/04/15 10:35:59;;;;;;;1999.90;999.90;;;19.80;99.90;;;;;;5073346;28;20510;-73
2023/04/15 10:38:45;;;;;;;1999.90;999.90;;;18.60;99.90;;;;;;5073325;28;20032;-78
2023/04/15 10:41:25;;;;;;;1999.90;999.90;;;18.20;99.90;;;;;;5073499;28;20021;-79
2023/04/15 10:44:02;;;;;;;1999.90;999.90;;;18.30;99.90;;;;;;5059152;28;20024;-79
2023/04/15 10:46:38;;;;;;;1999.90;999.90;;;17.50;99.90;;;;;;5051848;28;20032;-73
2023/04/15 10:49:11;;;;;;;1999.90;999.90;;;17.10;99.90;;;;;;5053066;28;20052;-72
2023/04/15 10:51:42;;;;;;;1999.90;999.90;;;17.20;99.90;;;;;;5051742;28;20541;-79
2023/04/15 10:54:13;;;;;;;1999.90;999.90;;;17.20;99.90;;;;;;5052972;28;20062;-79
2023/04/15 10:56:44;;;;;;;1999.90;999.90;;;17.30;99.90;;;;;;5052984;28;20025;-80
2023/04/15 10:59:10;;;;;;;1999.90;999.90;;;17.30;99.90;;;;;;5052840;28;20092;-73
2023/04/15 11:01:52;;;;;;;1999.90;999.90;;;16.50;99.90;;;;;;5051707;28;20128;-73
2023/04/15 11:04:56;;;;;;;1999.90;999.90;;;16.80;99.90;;;;;;5052716;28;20028;-78
2023/04/15 11:07:34;;;;;;;;;;;16.10;99.90;;;;;;5053420;28;20033;-72
2023/04/15 11:10:00;;;;;;;1999.90;999.90;;;16.20;99.90;;;;;;5052398;28;19905;-78
2023/04/15 11:12:36;;;;;;;1999.90;999.90;;;16.70;99.90;;;;;;5052812;28;20049;-73
2023/04/15 11:15:26;;;;;;;1999.90;999.90;;;16.60;99.90;;;;;;5052724;28;20028;-72
2023/04/15 11:17:51;;;;;;;1999.90;999.90;;;16.90;99.90;;;;;;5053112;28;20472;-72
2023/04/15 11:20:17;;;;;;;1999.90;999.90;;;17.10;99.90;;;;;;5052958;28;20166;-72
2023/04/15 11:22:48;;;;;;;1999.90;999.90;;;16.60;99.90;;;;;;5051952;28;20067;-73
2023/04/15 11:25:30;;;;;;;1999.90;999.90;;;17.10;99.90;;;;;;5052739;28;20017;-79
2023/04/15 11:27:57;;;;;;;1999.90;999.90;;;17.40;99.90;;;;;;5056683;28;20028;-72
2023/04/15 11:30:24;;;;;;;1999.90;999.90;;;17.30;99.90;;;;;;5072693;28;20572;-78
2023/04/15 11:32:51;;;;;;;1999.90;999.90;;;16.90;99.90;;;;;;5072541;28;20031;-79
2023/04/15 11:35:18;;;;;;;1999.90;999.90;;;16.70;99.90;;;;;;5072352;28;20104;-79
2023/04/15 11:37:44;;;;;;;1999.90;999.90;;;16.30;99.90;;;;;;5075814;28;20117;-72
2023/04/15 11:40:10;;;;;;;1999.90;999.90;;;16.00;99.90;;;;;;5076657;28;20035;-79
2023/04/15 11:42:36;;;;;;;1999.90;999.90;;;16.40;99.90;;;;;;5074425;28;20021;-73
2023/04/15 11:45:10;;;;;;;1999.90;999.90;;;16.60;99.90;;;;;;5055285;28;20377;-73
2023/04/15 11:47:36;;;;;;;1999.90;999.90;;;16.20;99.90;;;;;;5055351;28;20365;-72
2023/04/15 11:50:22;;;;;;;1999.90;999.90;;;15.90;99.90;;;;;;5056265;28;20435;-72
2023/04/15 11:52:54;;;;;;;1999.90;999.90;;;16.10;99.90;;;;;;5056327;28;20029;-72
2023/04/15 11:55:20;;;;;;;1999.90;999.90;;;16.10;99.90;;;;;;5056279;28;20072;-72
2023/04/15 11:57:45;;;;;;;1999.90;999.90;;;16.30;99.90;;;;;;5056314;28;20396;-78
2023/04/15 12:00:12;;;;;;;1999.90;999.90;;;16.30;99.90;;;;;;5056322;28;20032;-79
2023/04/15 12:02:38;;;;;;;1999.90;999.90;;;16.60;99.90;;;;;;5056458;28;20514;-78